PWSweather.com
Personal Weather Stations
Station Observations
ALMOSTER
Urb. Mas Carreras, AlmosterES 43393

Urb. Mas CarrerasAlmosterES 43393

Lat: 41.1908333333, Lon: 1.1086111111

Elevation: 836.6

Station Type: Davis Vantage Pro 2

http://www.meteoalmoster.net

High Low Average
Temperature 74.3°F23.5°C 63.5°F17.5°C 69.9°F21.1°C
Dew Point 56.7°F13.7°C 50.7°F10.4°C 53.9°F12.2°C
Winds 30.0 mph 48.3 kmh Calm Calm 11.0 mph SW17.7 kmh SW
Wind Gusts 49.0 mph78.9 kmh -- 21.0 mph33.8 kmh
Humidity 75% 46% 57%
Pressure 29.89 in1012.2 mb 29.80 in1009.1 mb -
Precipitation 0.01 in0.3 mm - -
Hour Temp Dew Point Humidity Winds Wind Gusts Pressure Precip Precip Rate Daily Precip Total
12:00 AM 70.3°F21.3°C 54.5°F12.5°C 57% Calm Calm -- 29.88 in1011.9 mb 0.00 in0.0 mm 0.00 in0.0 mm 0.00 in0.0 mm
12:30 AM 70.0°F21.1°C 54.0°F12.2°C 57% 3.0 mph NW4.8 kmh NW 13.0 mph20.9 kmh 29.86 in1011.2 mb 0.00 in0.0 mm 0.00 in0.0 mm 0.00 in0.0 mm
01:00 AM 67.6°F19.8°C 55.8°F13.2°C 66% 8.0 mph NW12.9 kmh NW 15.0 mph24.1 kmh 29.86 in1011.2 mb 0.01 in0.3 mm 0.02 in0.5 mm 0.01 in0.3 mm
02:00 AM 66.7°F19.3°C 55.4°F13.0°C 67% Calm Calm 1.0 mph1.6 kmh 29.86 in1011.2 mb 0.01 in0.3 mm 0.00 in0.0 mm 0.01 in0.3 mm
02:30 AM 66.9°F19.4°C 54.7°F12.6°C 65% Calm Calm -- 29.86 in1011.2 mb 0.01 in0.3 mm 0.00 in0.0 mm 0.01 in0.3 mm
03:00 AM 66.7°F19.3°C 55.4°F13.0°C 67% Calm Calm -- 29.86 in1011.2 mb 0.00 in0.0 mm 0.00 in0.0 mm 0.01 in0.3 mm
03:30 AM 65.5°F18.6°C 55.8°F13.2°C 71% Calm Calm -- 29.86 in1011.2 mb 0.00 in0.0 mm 0.00 in0.0 mm 0.01 in0.3 mm
04:00 AM 65.3°F18.5°C 55.2°F12.9°C 70% Calm Calm -- 29.85 in1010.8 mb 0.00 in0.0 mm 0.00 in0.0 mm 0.01 in0.3 mm
04:30 AM 65.5°F18.6°C 54.7°F12.6°C 68% Calm Calm -- 29.84 in1010.5 mb 0.00 in0.0 mm 0.00 in0.0 mm 0.01 in0.3 mm
05:00 AM 64.2°F17.9°C 53.6°F12.0°C 68% Calm Calm -- 29.85 in1010.8 mb 0.00 in0.0 mm 0.00 in0.0 mm 0.01 in0.3 mm
05:30 AM 63.9°F17.7°C 55.4°F13.0°C 74% Calm Calm -- 29.86 in1011.2 mb 0.00 in0.0 mm 0.00 in0.0 mm 0.01 in0.3 mm
06:00 AM 63.5°F17.5°C 55.4°F13.0°C 75% Calm Calm -- 29.86 in1011.2 mb 0.00 in0.0 mm 0.00 in0.0 mm 0.01 in0.3 mm
06:30 AM 65.8°F18.8°C 56.1°F13.4°C 71% Calm Calm -- 29.87 in1011.5 mb 0.00 in0.0 mm 0.00 in0.0 mm 0.01 in0.3 mm
07:00 AM 65.5°F18.6°C 55.8°F13.2°C 71% Calm Calm -- 29.87 in1011.5 mb 0.00 in0.0 mm 0.00 in0.0 mm 0.01 in0.3 mm
07:30 AM 67.6°F19.8°C 54.7°F12.6°C 63% Calm Calm 4.0 mph6.4 kmh 29.87 in1011.5 mb 0.00 in0.0 mm 0.00 in0.0 mm 0.01 in0.3 mm
08:00 AM 67.8°F19.9°C 55.6°F13.1°C 65% Calm Calm -- 29.88 in1011.9 mb 0.00 in0.0 mm 0.00 in0.0 mm 0.01 in0.3 mm
08:30 AM 69.8°F21.0°C 56.7°F13.7°C 63% 1.0 mph SE1.6 kmh SE 6.0 mph9.7 kmh 29.88 in1011.9 mb 0.00 in0.0 mm 0.00 in0.0 mm 0.01 in0.3 mm
09:00 AM 71.2°F21.8°C 51.6°F10.9°C 50% 6.0 mph WNW9.7 kmh WNW 15.0 mph24.1 kmh 29.88 in1011.9 mb 0.00 in0.0 mm 0.00 in0.0 mm 0.01 in0.3 mm
09:30 AM 71.8°F22.1°C 51.6°F10.9°C 49% 7.0 mph NW11.3 kmh NW 13.0 mph20.9 kmh 29.88 in1011.9 mb 0.00 in0.0 mm 0.00 in0.0 mm 0.01 in0.3 mm
10:00 AM 72.1°F22.3°C 52.5°F11.4°C 50% 8.0 mph NW12.9 kmh NW 17.0 mph27.4 kmh 29.88 in1011.9 mb 0.00 in0.0 mm 0.00 in0.0 mm 0.01 in0.3 mm
10:30 AM 72.0°F22.2°C 52.9°F11.6°C 51% 6.0 mph WNW9.7 kmh WNW 13.0 mph20.9 kmh 29.89 in1012.2 mb 0.00 in0.0 mm 0.00 in0.0 mm 0.01 in0.3 mm
11:00 AM 73.8°F23.2°C 53.4°F11.9°C 49% 9.0 mph W14.5 kmh W 19.0 mph30.6 kmh 29.88 in1011.9 mb 0.00 in0.0 mm 0.00 in0.0 mm 0.01 in0.3 mm
11:30 AM 73.9°F23.3°C 53.1°F11.7°C 48% 10.0 mph W16.1 kmh W 21.0 mph33.8 kmh 29.89 in1012.2 mb 0.00 in0.0 mm 0.00 in0.0 mm 0.01 in0.3 mm
12:00 PM 72.3°F22.4°C 53.6°F12.0°C 52% 7.0 mph NW11.3 kmh NW 18.0 mph29.0 kmh 29.89 in1012.2 mb 0.00 in0.0 mm 0.00 in0.0 mm 0.01 in0.3 mm
12:30 PM 72.7°F22.6°C 54.5°F12.5°C 53% 11.0 mph WNW17.7 kmh WNW 21.0 mph33.8 kmh 29.89 in1012.2 mb 0.00 in0.0 mm 0.00 in0.0 mm 0.01 in0.3 mm
01:00 PM 73.2°F22.9°C 54.7°F12.6°C 52% 11.0 mph W17.7 kmh W 23.0 mph37.0 kmh 29.88 in1011.9 mb 0.00 in0.0 mm 0.00 in0.0 mm 0.01 in0.3 mm
01:30 PM 73.9°F23.3°C 54.7°F12.6°C 51% 15.0 mph WNW24.1 kmh WNW 28.0 mph45.1 kmh 29.87 in1011.5 mb 0.00 in0.0 mm 0.00 in0.0 mm 0.01 in0.3 mm
02:00 PM 72.9°F22.7°C 54.3°F12.4°C 52% 16.0 mph WNW25.7 kmh WNW 29.0 mph46.7 kmh 29.87 in1011.5 mb 0.00 in0.0 mm 0.00 in0.0 mm 0.01 in0.3 mm
02:30 PM 73.8°F23.2°C 55.6°F13.1°C 53% 16.0 mph WNW25.7 kmh WNW 28.0 mph45.1 kmh 29.85 in1010.8 mb 0.00 in0.0 mm 0.00 in0.0 mm 0.01 in0.3 mm
03:00 PM 73.6°F23.1°C 55.4°F13.0°C 53% 17.0 mph WNW27.4 kmh WNW 35.0 mph56.3 kmh 29.84 in1010.5 mb 0.00 in0.0 mm 0.00 in0.0 mm 0.01 in0.3 mm
03:30 PM 73.4°F23.0°C 55.2°F12.9°C 53% 19.0 mph WNW30.6 kmh WNW 31.0 mph49.9 kmh 29.84 in1010.5 mb 0.00 in0.0 mm 0.00 in0.0 mm 0.01 in0.3 mm
04:00 PM 74.1°F23.4°C 55.4°F13.0°C 52% 17.0 mph NW27.4 kmh NW 30.0 mph48.3 kmh 29.82 in1009.8 mb 0.00 in0.0 mm 0.00 in0.0 mm 0.01 in0.3 mm
04:30 PM 73.8°F23.2°C 55.0°F12.8°C 52% 17.0 mph WNW27.4 kmh WNW 32.0 mph51.5 kmh 29.82 in1009.8 mb 0.00 in0.0 mm 0.00 in0.0 mm 0.01 in0.3 mm
05:00 PM 74.1°F23.4°C 53.8°F12.1°C 49% 19.0 mph NW30.6 kmh NW 32.0 mph51.5 kmh 29.81 in1009.5 mb 0.00 in0.0 mm 0.00 in0.0 mm 0.01 in0.3 mm
05:30 PM 74.3°F23.5°C 54.0°F12.2°C 49% 19.0 mph WNW30.6 kmh WNW 32.0 mph51.5 kmh 29.80 in1009.1 mb 0.00 in0.0 mm 0.00 in0.0 mm 0.01 in0.3 mm
06:00 PM 74.1°F23.4°C 52.5°F11.4°C 47% 22.0 mph WNW35.4 kmh WNW 43.0 mph69.2 kmh 29.80 in1009.1 mb 0.00 in0.0 mm 0.00 in0.0 mm 0.01 in0.3 mm
06:30 PM 73.6°F23.1°C 51.4°F10.8°C 46% 24.0 mph NW38.6 kmh NW 41.0 mph66.0 kmh 29.80 in1009.1 mb 0.00 in0.0 mm 0.00 in0.0 mm 0.01 in0.3 mm
07:00 PM 73.0°F22.8°C 52.2°F11.2°C 48% 25.0 mph NW40.2 kmh NW 48.0 mph77.2 kmh 29.81 in1009.5 mb 0.00 in0.0 mm 0.00 in0.0 mm 0.01 in0.3 mm
07:30 PM 72.0°F22.2°C 52.9°F11.6°C 51% 24.0 mph NW38.6 kmh NW 40.0 mph64.4 kmh 29.81 in1009.5 mb 0.00 in0.0 mm 0.00 in0.0 mm 0.01 in0.3 mm
08:00 PM 71.2°F21.8°C 52.7°F11.5°C 52% 29.0 mph NW46.7 kmh NW 49.0 mph78.9 kmh 29.80 in1009.1 mb 0.00 in0.0 mm 0.00 in0.0 mm 0.01 in0.3 mm
08:30 PM 70.0°F21.1°C 52.2°F11.2°C 53% 26.0 mph NW41.8 kmh NW 42.0 mph67.6 kmh 29.80 in1009.1 mb 0.00 in0.0 mm 0.00 in0.0 mm 0.01 in0.3 mm
09:00 PM 68.7°F20.4°C 52.5°F11.4°C 56% 29.0 mph NW46.7 kmh NW 47.0 mph75.6 kmh 29.81 in1009.5 mb 0.00 in0.0 mm 0.00 in0.0 mm 0.01 in0.3 mm
09:30 PM 67.8°F19.9°C 51.6°F10.9°C 56% 26.0 mph NW41.8 kmh NW 40.0 mph64.4 kmh 29.82 in1009.8 mb 0.00 in0.0 mm 0.00 in0.0 mm 0.01 in0.3 mm
10:00 PM 67.5°F19.7°C 51.6°F10.9°C 57% 30.0 mph NW48.3 kmh NW 48.0 mph77.2 kmh 29.84 in1010.5 mb 0.00 in0.0 mm 0.00 in0.0 mm 0.01 in0.3 mm
10:30 PM 66.7°F19.3°C 50.9°F10.5°C 57% 23.0 mph NW37.0 kmh NW 45.0 mph72.4 kmh 29.85 in1010.8 mb 0.00 in0.0 mm 0.00 in0.0 mm 0.01 in0.3 mm
11:00 PM 66.4°F19.1°C 50.7°F10.4°C 57% 11.0 mph NW17.7 kmh NW 22.0 mph35.4 kmh 29.88 in1011.9 mb 0.00 in0.0 mm 0.00 in0.0 mm 0.01 in0.3 mm
11:30 PM 66.4°F19.1°C 50.7°F10.4°C 57% 24.0 mph NW38.6 kmh NW 40.0 mph64.4 kmh 29.85 in1010.8 mb 0.00 in0.0 mm 0.00 in0.0 mm 0.01 in0.3 mm